sensor_id;sensor_type;location;lat;lon;timestamp;noise_LAeq;noise_LA_min;noise_LA_max;noise_LA01;noise_LA95
11999;Laerm;40817;51.520;9.954;2022-09-13T00:00:49;43.40;40.13;45.23;;
11999;Laerm;40817;51.520;9.954;2022-09-13T00:03:18;43.77;40.53;46.05;;
11999;Laerm;40817;51.520;9.954;2022-09-13T00:05:48;43.91;40.03;46.20;;
11999;Laerm;40817;51.520;9.954;2022-09-13T00:08:17;43.59;40.43;45.60;;
11999;Laerm;40817;51.520;9.954;2022-09-13T00:10:45;43.41;39.92;45.33;;
11999;Laerm;40817;51.520;9.954;2022-09-13T00:13:15;44.60;39.34;69.45;;
11999;Laerm;40817;51.520;9.954;2022-09-13T00:15:46;44.92;42.09;49.80;;
11999;Laerm;40817;51.520;9.954;2022-09-13T00:18:15;43.82;40.43;45.48;;
11999;Laerm;40817;51.520;9.954;2022-09-13T00:20:43;43.60;40.03;45.54;;
11999;Laerm;40817;51.520;9.954;2022-09-13T00:23:12;43.48;40.03;45.45;;
11999;Laerm;40817;51.520;9.954;2022-09-13T00:25:40;43.92;39.92;46.38;;
11999;Laerm;40817;51.520;9.954;2022-09-13T00:28:08;43.84;40.62;45.54;;
11999;Laerm;40817;51.520;9.954;2022-09-13T00:30:36;44.31;41.68;49.98;;
11999;Laerm;40817;51.520;9.954;2022-09-13T00:33:06;44.03;40.33;51.42;;
11999;Laerm;40817;51.520;9.954;2022-09-13T00:35:34;44.05;40.79;45.86;;
11999;Laerm;40817;51.520;9.954;2022-09-13T00:38:02;43.63;39.81;45.51;;
11999;Laerm;40817;51.520;9.954;2022-09-13T00:40:41;43.40;39.92;45.36;;
11999;Laerm;40817;51.520;9.954;2022-09-13T00:43:16;44.46;40.98;51.84;;
11999;Laerm;40817;51.520;9.954;2022-09-13T00:45:46;43.81;40.62;46.43;;
11999;Laerm;40817;51.520;9.954;2022-09-13T00:48:20;44.33;41.53;49.59;;
11999;Laerm;40817;51.520;9.954;2022-09-13T00:50:54;43.69;40.62;45.91;;
11999;Laerm;40817;51.520;9.954;2022-09-13T00:53:27;43.34;40.13;45.66;;
11999;Laerm;40817;51.520;9.954;2022-09-13T00:56:00;46.62;39.92;57.93;;
11999;Laerm;40817;51.520;9.954;2022-09-13T00:58:34;44.65;40.53;53.15;;
11999;Laerm;40817;51.520;9.954;2022-09-13T01:01:05;42.83;38.95;44.97;;
11999;Laerm;40817;51.520;9.954;2022-09-13T01:03:35;43.41;39.58;45.99;;
11999;Laerm;40817;51.520;9.954;2022-09-13T01:06:07;44.93;40.71;51.22;;
11999;Laerm;40817;51.520;9.954;2022-09-13T01:08:40;43.37;39.46;45.27;;
11999;Laerm;40817;51.520;9.954;2022-09-13T01:11:19;43.94;40.13;47.26;;
11999;Laerm;40817;51.520;9.954;2022-09-13T01:13:50;44.68;40.03;54.50;;
11999;Laerm;40817;51.520;9.954;2022-09-13T01:16:18;44.26;40.23;65.62;;
11999;Laerm;40817;51.520;9.954;2022-09-13T01:18:46;44.35;41.22;47.04;;
11999;Laerm;40817;51.520;9.954;2022-09-13T01:26:00;43.73;39.58;46.23;;
11999;Laerm;40817;51.520;9.954;2022-09-13T01:29:37;43.79;40.23;45.75;;
11999;Laerm;40817;51.520;9.954;2022-09-13T01:32:19;43.82;40.71;46.07;;
11999;Laerm;40817;51.520;9.954;2022-09-13T01:35:01;45.53;41.30;58.17;;
11999;Laerm;40817;51.520;9.954;2022-09-13T01:37:45;46.07;40.89;56.50;;
11999;Laerm;40817;51.520;9.954;2022-09-13T01:40:40;43.68;40.23;45.91;;
11999;Laerm;40817;51.520;9.954;2022-09-13T01:43:33;44.18;40.43;54.67;;
11999;Laerm;40817;51.520;9.954;2022-09-13T01:46:10;43.83;40.80;57.69;;
11999;Laerm;40817;51.520;9.954;2022-09-13T01:48:55;43.83;40.62;45.77;;
11999;Laerm;40817;51.520;9.954;2022-09-13T01:51:31;43.98;39.92;45.66;;
11999;Laerm;40817;51.520;9.954;2022-09-13T01:54:15;43.62;40.53;45.86;;
11999;Laerm;40817;51.520;9.954;2022-09-13T01:56:54;44.10;40.88;47.28;;
11999;Laerm;40817;51.520;9.954;2022-09-13T01:59:36;43.85;40.43;46.50;;
11999;Laerm;40817;51.520;9.954;2022-09-13T02:02:11;44.65;41.61;52.89;;
11999;Laerm;40817;51.520;9.954;2022-09-13T02:04:46;44.43;40.98;49.72;;
11999;Laerm;40817;51.520;9.954;2022-09-13T02:07:20;43.95;40.23;45.93;;
11999;Laerm;40817;51.520;9.954;2022-09-13T02:09:53;45.62;41.22;54.90;;
11999;Laerm;40817;51.520;9.954;2022-09-13T02:12:27;44.29;41.14;58.13;;
11999;Laerm;40817;51.520;9.954;2022-09-13T02:15:05;43.97;40.71;45.86;;
11999;Laerm;40817;51.520;9.954;2022-09-13T02:17:40;45.01;40.13;61.58;;
11999;Laerm;40817;51.520;9.954;2022-09-13T02:20:17;48.30;41.38;59.45;;
11999;Laerm;40817;51.520;9.954;2022-09-13T02:22:53;44.11;40.71;48.12;;
11999;Laerm;40817;51.520;9.954;2022-09-13T02:25:23;44.44;41.14;55.11;;
11999;Laerm;40817;51.520;9.954;2022-09-13T02:27:57;43.66;40.03;46.02;;
11999;Laerm;40817;51.520;9.954;2022-09-13T02:30:28;44.23;40.62;50.23;;
11999;Laerm;40817;51.520;9.954;2022-09-13T02:33:03;43.91;40.89;48.37;;
11999;Laerm;40817;51.520;9.954;2022-09-13T02:35:37;45.33;40.71;57.68;;
11999;Laerm;40817;51.520;9.954;2022-09-13T02:38:13;47.89;40.98;60.13;;
11999;Laerm;40817;51.520;9.954;2022-09-13T02:40:48;43.75;40.71;54.44;;
11999;Laerm;40817;51.520;9.954;2022-09-13T02:43:26;43.75;40.71;49.33;;
11999;Laerm;40817;51.520;9.954;2022-09-13T02:46:13;43.69;40.33;45.33;;
11999;Laerm;40817;51.520;9.954;2022-09-13T02:48:55;44.26;40.98;52.20;;
11999;Laerm;40817;51.520;9.954;2022-09-13T02:51:35;43.75;40.71;45.48;;
11999;Laerm;40817;51.520;9.954;2022-09-13T02:54:17;43.77;40.71;45.39;;
11999;Laerm;40817;51.520;9.954;2022-09-13T02:56:52;44.04;40.43;46.18;;
11999;Laerm;40817;51.520;9.954;2022-09-13T02:59:24;44.09;41.30;45.80;;
11999;Laerm;40817;51.520;9.954;2022-09-13T03:01:58;44.20;41.06;45.94;;
11999;Laerm;40817;51.520;9.954;2022-09-13T03:04:29;44.05;41.53;45.72;;
11999;Laerm;40817;51.520;9.954;2022-09-13T03:06:58;44.23;41.53;49.34;;
11999;Laerm;40817;51.520;9.954;2022-09-13T03:09:26;44.13;40.89;46.20;;
11999;Laerm;40817;51.520;9.954;2022-09-13T03:12:31;44.14;41.06;46.97;;
11999;Laerm;40817;51.520;9.954;2022-09-13T03:15:17;44.56;41.38;46.82;;
11999;Laerm;40817;51.520;9.954;2022-09-13T03:17:55;44.22;41.46;46.45;;
11999;Laerm;40817;51.520;9.954;2022-09-13T03:20:39;44.11;40.80;52.48;;
11999;Laerm;40817;51.520;9.954;2022-09-13T03:23:45;44.36;40.98;51.07;;
11999;Laerm;40817;51.520;9.954;2022-09-13T03:26:42;44.28;41.22;47.50;;
11999;Laerm;40817;51.520;9.954;2022-09-13T03:29:26;44.39;41.33;46.80;;
11999;Laerm;40817;51.520;9.954;2022-09-13T03:32:14;44.05;41.38;46.18;;
11999;Laerm;40817;51.520;9.954;2022-09-13T03:34:51;44.38;41.30;47.16;;
11999;Laerm;40817;51.520;9.954;2022-09-13T03:37:31;44.17;41.75;53.56;;
11999;Laerm;40817;51.520;9.954;2022-09-13T03:40:08;44.60;42.03;50.31;;
11999;Laerm;40817;51.520;9.954;2022-09-13T03:42:44;44.40;41.61;47.88;;
11999;Laerm;40817;51.520;9.954;2022-09-13T03:45:18;44.09;40.89;45.69;;
11999;Laerm;40817;51.520;9.954;2022-09-13T03:47:49;44.78;41.61;54.07;;
11999;Laerm;40817;51.520;9.954;2022-09-13T03:50:21;44.55;41.22;48.10;;
11999;Laerm;40817;51.520;9.954;2022-09-13T03:52:57;44.36;41.53;50.38;;
11999;Laerm;40817;51.520;9.954;2022-09-13T03:55:27;44.27;41.53;46.15;;
11999;Laerm;40817;51.520;9.954;2022-09-13T03:57:56;44.02;41.03;48.88;;
11999;Laerm;40817;51.520;9.954;2022-09-13T04:00:25;44.57;40.53;64.73;;
11999;Laerm;40817;51.520;9.954;2022-09-13T04:02:52;44.45;41.82;46.62;;
11999;Laerm;40817;51.520;9.954;2022-09-13T04:05:20;44.49;41.89;48.58;;
11999;Laerm;40817;51.520;9.954;2022-09-13T04:07:48;44.27;41.22;47.12;;
11999;Laerm;40817;51.520;9.954;2022-09-13T04:10:16;44.99;41.53;53.00;;
11999;Laerm;40817;51.520;9.954;2022-09-13T04:12:45;44.38;41.38;47.57;;
11999;Laerm;40817;51.520;9.954;2022-09-13T04:15:13;44.19;41.46;48.58;;
11999;Laerm;40817;51.520;9.954;2022-09-13T04:17:41;44.46;41.61;50.58;;
11999;Laerm;40817;51.520;9.954;2022-09-13T04:20:09;44.48;41.61;48.40;;
11999;Laerm;40817;51.520;9.954;2022-09-13T04:22:37;44.35;40.98;49.08;;
11999;Laerm;40817;51.520;9.954;2022-09-13T04:25:07;44.15;41.30;53.82;;
11999;Laerm;40817;51.520;9.954;2022-09-13T04:27:35;44.31;41.46;47.88;;
11999;Laerm;40817;51.520;9.954;2022-09-13T04:30:06;44.25;41.82;47.96;;
11999;Laerm;40817;51.520;9.954;2022-09-13T04:32:36;47.19;42.47;53.40;;
11999;Laerm;40817;51.520;9.954;2022-09-13T04:35:05;44.91;41.46;52.33;;
11999;Laerm;40817;51.520;9.954;2022-09-13T04:37:33;44.21;41.38;48.77;;
11999;Laerm;40817;51.520;9.954;2022-09-13T04:40:01;44.35;41.30;52.54;;
11999;Laerm;40817;51.520;9.954;2022-09-13T04:42:29;44.54;41.82;49.56;;
11999;Laerm;40817;51.520;9.954;2022-09-13T04:44:57;44.50;41.22;47.74;;
11999;Laerm;40817;51.520;9.954;2022-09-13T04:47:26;46.28;40.80;59.01;;
11999;Laerm;40817;51.520;9.954;2022-09-13T04:49:54;45.76;41.75;66.48;;
11999;Laerm;40817;51.520;9.954;2022-09-13T04:52:22;45.04;42.16;57.18;;
11999;Laerm;40817;51.520;9.954;2022-09-13T04:54:50;44.63;41.26;53.06;;
11999;Laerm;40817;51.520;9.954;2022-09-13T04:57:17;44.78;42.16;52.16;;
11999;Laerm;40817;51.520;9.954;2022-09-13T04:59:45;44.86;42.59;51.48;;
11999;Laerm;40817;51.520;9.954;2022-09-13T05:02:13;45.42;42.98;50.16;;
11999;Laerm;40817;51.520;9.954;2022-09-13T05:04:42;45.06;42.35;51.04;;
11999;Laerm;40817;51.520;9.954;2022-09-13T05:07:10;44.82;42.35;58.12;;
11999;Laerm;40817;51.520;9.954;2022-09-13T05:09:38;44.74;42.29;50.51;;
11999;Laerm;40817;51.520;9.954;2022-09-13T05:12:06;45.60;42.09;58.06;;
11999;Laerm;40817;51.520;9.954;2022-09-13T05:14:34;44.90;42.41;51.95;;
11999;Laerm;40817;51.520;9.954;2022-09-13T05:17:02;44.49;41.89;46.73;;
11999;Laerm;40817;51.520;9.954;2022-09-13T05:19:30;45.02;42.09;59.67;;
11999;Laerm;40817;51.520;9.954;2022-09-13T05:22:01;44.85;42.41;49.77;;
11999;Laerm;40817;51.520;9.954;2022-09-13T05:24:29;44.95;42.65;53.33;;
11999;Laerm;40817;51.520;9.954;2022-09-13T05:26:57;44.58;39.78;58.71;;
11999;Laerm;40817;51.520;9.954;2022-09-13T05:29:28;44.37;40.13;52.71;;
11999;Laerm;40817;51.520;9.954;2022-09-13T05:31:56;44.37;41.14;46.18;;
11999;Laerm;40817;51.520;9.954;2022-09-13T05:34:24;44.87;42.41;48.98;;
11999;Laerm;40817;51.520;9.954;2022-09-13T05:36:58;45.19;42.35;53.34;;
11999;Laerm;40817;51.520;9.954;2022-09-13T05:39:27;45.73;42.47;60.52;;
11999;Laerm;40817;51.520;9.954;2022-09-13T05:41:54;45.26;42.35;64.56;;
11999;Laerm;40817;51.520;9.954;2022-09-13T05:44:22;45.16;42.22;50.76;;
11999;Laerm;40817;51.520;9.954;2022-09-13T05:46:50;45.19;42.35;55.03;;
11999;Laerm;40817;51.520;9.954;2022-09-13T05:49:18;45.07;41.89;54.41;;
11999;Laerm;40817;51.520;9.954;2022-09-13T05:51:46;44.66;42.22;48.67;;
11999;Laerm;40817;51.520;9.954;2022-09-13T05:54:14;44.79;42.30;51.77;;
11999;Laerm;40817;51.520;9.954;2022-09-13T05:56:43;44.75;42.03;56.56;;
11999;Laerm;40817;51.520;9.954;2022-09-13T05:59:12;45.20;42.47;50.69;;
11999;Laerm;40817;51.520;9.954;2022-09-13T06:01:40;44.61;42.03;50.36;;
11999;Laerm;40817;51.520;9.954;2022-09-13T06:04:08;44.54;41.96;50.57;;
11999;Laerm;40817;51.520;9.954;2022-09-13T06:06:37;45.09;41.89;57.57;;
11999;Laerm;40817;51.520;9.954;2022-09-13T06:09:06;44.73;41.96;50.95;;
11999;Laerm;40817;51.520;9.954;2022-09-13T06:11:34;44.57;41.46;47.50;;
11999;Laerm;40817;51.520;9.954;2022-09-13T06:14:03;44.57;41.68;50.13;;
11999;Laerm;40817;51.520;9.954;2022-09-13T06:16:31;45.16;42.16;71.73;;
11999;Laerm;40817;51.520;9.954;2022-09-13T06:18:59;46.08;42.93;57.75;;
11999;Laerm;40817;51.520;9.954;2022-09-13T06:21:27;55.96;41.96;72.53;;
11999;Laerm;40817;51.520;9.954;2022-09-13T06:23:55;50.44;40.43;66.71;;
11999;Laerm;40817;51.520;9.954;2022-09-13T06:26:24;45.52;42.16;52.00;;
11999;Laerm;40817;51.520;9.954;2022-09-13T06:28:55;58.27;41.22;78.42;;
11999;Laerm;40817;51.520;9.954;2022-09-13T06:31:27;44.72;42.36;53.52;;
11999;Laerm;40817;51.520;9.954;2022-09-13T06:33:58;44.57;41.96;53.30;;
11999;Laerm;40817;51.520;9.954;2022-09-13T06:36:27;44.53;41.06;56.30;;
11999;Laerm;40817;51.520;9.954;2022-09-13T06:38:55;44.38;41.38;48.45;;
11999;Laerm;40817;51.520;9.954;2022-09-13T06:41:25;44.33;41.53;49.77;;
11999;Laerm;40817;51.520;9.954;2022-09-13T06:43:55;44.55;42.16;49.30;;
11999;Laerm;40817;51.520;9.954;2022-09-13T06:46:27;44.64;42.03;57.32;;
11999;Laerm;40817;51.520;9.954;2022-09-13T06:48:58;46.34;41.75;73.62;;
11999;Laerm;40817;51.520;9.954;2022-09-13T06:51:26;45.79;42.29;57.66;;
11999;Laerm;40817;51.520;9.954;2022-09-13T06:53:55;45.30;41.38;66.42;;
11999;Laerm;40817;51.520;9.954;2022-09-13T06:56:25;44.91;41.82;53.20;;
11999;Laerm;40817;51.520;9.954;2022-09-13T06:58:57;44.73;41.38;51.79;;
11999;Laerm;40817;51.520;9.954;2022-09-13T07:01:30;69.61;41.55;87.65;;
11999;Laerm;40817;51.520;9.954;2022-09-13T07:04:01;53.54;41.89;64.51;;
11999;Laerm;40817;51.520;9.954;2022-09-13T07:06:32;58.93;41.88;75.16;;
11999;Laerm;40817;51.520;9.954;2022-09-13T07:09:04;44.58;42.16;48.43;;
11999;Laerm;40817;51.520;9.954;2022-09-13T07:11:35;44.49;41.61;49.71;;
11999;Laerm;40817;51.520;9.954;2022-09-13T07:14:04;44.34;42.09;51.90;;
11999;Laerm;40817;51.520;9.954;2022-09-13T07:16:36;44.39;41.30;50.39;;
11999;Laerm;40817;51.520;9.954;2022-09-13T07:19:10;44.55;42.47;47.95;;
11999;Laerm;40817;51.520;9.954;2022-09-13T07:21:39;44.60;41.75;47.96;;
11999;Laerm;40817;51.520;9.954;2022-09-13T07:24:07;44.50;41.46;56.17;;
11999;Laerm;40817;51.520;9.954;2022-09-13T07:26:35;44.75;41.96;53.39;;
11999;Laerm;40817;51.520;9.954;2022-09-13T07:29:08;44.62;41.75;54.15;;
11999;Laerm;40817;51.520;9.954;2022-09-13T07:31:40;45.83;42.35;59.25;;
11999;Laerm;40817;51.520;9.954;2022-09-13T07:34:13;44.75;42.03;54.88;;
11999;Laerm;40817;51.520;9.954;2022-09-13T07:36:42;44.50;41.61;48.94;;
11999;Laerm;40817;51.520;9.954;2022-09-13T07:39:10;49.97;40.98;76.52;;
11999;Laerm;40817;51.520;9.954;2022-09-13T07:41:38;51.61;40.62;74.10;;
11999;Laerm;40817;51.520;9.954;2022-09-13T07:44:06;49.99;40.89;65.58;;
11999;Laerm;40817;51.520;9.954;2022-09-13T07:46:38;44.30;40.98;47.88;;
11999;Laerm;40817;51.520;9.954;2022-09-13T07:49:12;44.57;41.68;53.39;;
11999;Laerm;40817;51.520;9.954;2022-09-13T07:51:41;52.32;41.30;75.52;;
11999;Laerm;40817;51.520;9.954;2022-09-13T07:54:13;54.19;40.89;73.35;;
11999;Laerm;40817;51.520;9.954;2022-09-13T07:56:42;59.07;41.96;73.72;;
11999;Laerm;40817;51.520;9.954;2022-09-13T07:59:13;59.35;42.47;84.20;;
11999;Laerm;40817;51.520;9.954;2022-09-13T08:01:46;57.84;42.47;74.03;;
11999;Laerm;40817;51.520;9.954;2022-09-13T08:04:16;56.52;41.75;77.94;;
11999;Laerm;40817;51.520;9.954;2022-09-13T08:06:45;55.37;41.75;73.89;;
11999;Laerm;40817;51.520;9.954;2022-09-13T08:09:14;59.09;41.68;73.76;;
11999;Laerm;40817;51.520;9.954;2022-09-13T08:11:45;57.41;41.53;73.46;;
11999;Laerm;40817;51.520;9.954;2022-09-13T08:14:16;56.69;42.41;71.66;;
11999;Laerm;40817;51.520;9.954;2022-09-13T08:16:46;57.87;42.41;74.27;;
11999;Laerm;40817;51.520;9.954;2022-09-13T08:19:17;57.72;41.61;73.89;;
11999;Laerm;40817;51.520;9.954;2022-09-13T08:21:45;57.04;41.53;71.25;;
11999;Laerm;40817;51.520;9.954;2022-09-13T08:24:16;55.91;41.68;72.19;;
11999;Laerm;40817;51.520;9.954;2022-09-13T08:26:45;55.49;42.03;71.25;;
11999;Laerm;40817;51.520;9.954;2022-09-13T08:29:14;56.06;41.53;71.82;;
11999;Laerm;40817;51.520;9.954;2022-09-13T08:31:42;55.54;41.46;70.62;;
11999;Laerm;40817;51.520;9.954;2022-09-13T08:34:13;56.56;41.14;75.71;;
11999;Laerm;40817;51.520;9.954;2022-09-13T08:36:42;58.64;41.89;74.75;;
11999;Laerm;40817;51.520;9.954;2022-09-13T08:39:12;56.71;41.82;72.29;;
11999;Laerm;40817;51.520;9.954;2022-09-13T08:42:06;57.14;42.29;72.22;;
11999;Laerm;40817;51.520;9.954;2022-09-13T08:44:43;57.27;42.29;73.15;;
11999;Laerm;40817;51.520;9.954;2022-09-13T08:47:29;58.28;41.68;77.57;;
11999;Laerm;40817;51.520;9.954;2022-09-13T08:50:10;51.26;42.16;70.50;;
11999;Laerm;40817;51.520;9.954;2022-09-13T08:52:55;44.89;41.82;64.56;;
11999;Laerm;40817;51.520;9.954;2022-09-13T08:55:46;44.77;41.89;51.81;;
11999;Laerm;40817;51.520;9.954;2022-09-13T08:58:56;44.10;40.23;49.87;;
11999;Laerm;40817;51.520;9.954;2022-09-13T09:01:45;44.82;40.62;61.40;;
11999;Laerm;40817;51.520;9.954;2022-09-13T09:04:37;44.69;40.62;54.34;;
11999;Laerm;40817;51.520;9.954;2022-09-13T09:07:12;43.97;41.22;49.79;;
11999;Laerm;40817;51.520;9.954;2022-09-13T09:09:47;44.42;40.03;56.04;;
11999;Laerm;40817;51.520;9.954;2022-09-13T09:12:30;45.51;41.46;61.58;;
11999;Laerm;40817;51.520;9.954;2022-09-13T09:15:07;46.39;41.30;64.98;;
11999;Laerm;40817;51.520;9.954;2022-09-13T09:17:50;44.96;40.43;58.92;;
11999;Laerm;40817;51.520;9.954;2022-09-13T09:20:29;43.96;40.80;54.08;;
11999;Laerm;40817;51.520;9.954;2022-09-13T09:23:04;43.92;40.80;56.11;;
11999;Laerm;40817;51.520;9.954;2022-09-13T09:25:34;44.13;40.71;58.78;;
11999;Laerm;40817;51.520;9.954;2022-09-13T09:28:12;45.11;41.22;54.58;;
11999;Laerm;40817;51.520;9.954;2022-09-13T09:30:50;43.98;40.89;55.72;;
11999;Laerm;40817;51.520;9.954;2022-09-13T09:33:44;44.11;40.43;57.68;;
11999;Laerm;40817;51.520;9.954;2022-09-13T09:36:24;44.71;40.71;60.01;;
11999;Laerm;40817;51.520;9.954;2022-09-13T09:38:56;43.97;41.11;55.64;;
11999;Laerm;40817;51.520;9.954;2022-09-13T09:41:29;43.78;40.45;56.40;;
11999;Laerm;40817;51.520;9.954;2022-09-13T09:44:19;43.38;40.53;58.04;;
11999;Laerm;40817;51.520;9.954;2022-09-13T09:46:54;45.22;39.70;61.40;;
11999;Laerm;40817;51.520;9.954;2022-09-13T09:49:31;43.09;37.52;52.41;;
11999;Laerm;40817;51.520;9.954;2022-09-13T09:52:24;43.59;40.33;50.40;;
11999;Laerm;40817;51.520;9.954;2022-09-13T09:55:13;43.58;40.62;56.61;;
11999;Laerm;40817;51.520;9.954;2022-09-13T09:57:55;48.92;39.70;75.02;;
11999;Laerm;40817;51.520;9.954;2022-09-13T10:00:27;48.62;40.33;61.58;;
11999;Laerm;40817;51.520;9.954;2022-09-13T10:03:01;51.55;40.62;60.16;;
11999;Laerm;40817;51.520;9.954;2022-09-13T10:05:31;43.50;39.21;60.03;;
11999;Laerm;40817;51.520;9.954;2022-09-13T10:08:04;46.58;41.46;63.43;;
11999;Laerm;40817;51.520;9.954;2022-09-13T10:10:40;45.21;40.79;60.01;;
11999;Laerm;40817;51.520;9.954;2022-09-13T10:13:15;47.30;41.22;71.62;;
11999;Laerm;40817;51.520;9.954;2022-09-13T10:15:56;44.33;40.89;57.50;;
11999;Laerm;40817;51.520;9.954;2022-09-13T10:18:26;44.57;41.75;52.88;;
11999;Laerm;40817;51.520;9.954;2022-09-13T10:21:03;44.04;41.75;52.62;;
11999;Laerm;40817;51.520;9.954;2022-09-13T10:23:32;44.12;41.53;51.73;;
11999;Laerm;40817;51.520;9.954;2022-09-13T10:26:09;43.88;41.61;53.23;;
11999;Laerm;40817;51.520;9.954;2022-09-13T10:28:45;43.97;41.06;53.43;;
11999;Laerm;40817;51.520;9.954;2022-09-13T10:31:15;43.47;39.81;55.53;;
11999;Laerm;40817;51.520;9.954;2022-09-13T10:33:55;42.89;39.81;49.64;;
11999;Laerm;40817;51.520;9.954;2022-09-13T10:36:30;46.42;39.58;64.48;;
11999;Laerm;40817;51.520;9.954;2022-09-13T10:39:03;43.58;40.03;54.25;;
11999;Laerm;40817;51.520;9.954;2022-09-13T10:41:37;44.25;40.53;55.91;;
11999;Laerm;40817;51.520;9.954;2022-09-13T10:44:26;45.00;39.68;60.44;;
11999;Laerm;40817;51.520;9.954;2022-09-13T10:46:55;43.27;40.23;54.37;;
11999;Laerm;40817;51.520;9.954;2022-09-13T10:49:41;44.22;40.23;57.03;;
11999;Laerm;40817;51.520;9.954;2022-09-13T10:52:30;46.52;41.53;74.09;;
11999;Laerm;40817;51.520;9.954;2022-09-13T10:55:32;46.35;41.75;61.17;;
11999;Laerm;40817;51.520;9.954;2022-09-13T10:58:17;44.68;42.35;61.62;;
11999;Laerm;40817;51.520;9.954;2022-09-13T11:01:34;45.44;43.14;57.99;;
11999;Laerm;40817;51.520;9.954;2022-09-13T11:04:50;46.04;42.98;53.19;;
11999;Laerm;40817;51.520;9.954;2022-09-13T11:10:53;43.64;41.03;55.49;;
11999;Laerm;40817;51.520;9.954;2022-09-13T11:13:38;44.77;41.96;61.25;;
11999;Laerm;40817;51.520;9.954;2022-09-13T11:16:27;44.52;40.89;62.53;;
11999;Laerm;40817;51.520;9.954;2022-09-13T11:19:17;44.16;40.62;59.14;;
11999;Laerm;40817;51.520;9.954;2022-09-13T11:22:15;45.97;40.71;60.56;;
11999;Laerm;40817;51.520;9.954;2022-09-13T11:25:16;44.77;39.46;57.98;;
11999;Laerm;40817;51.520;9.954;2022-09-13T11:28:02;43.71;38.52;54.51;;
11999;Laerm;40817;51.520;9.954;2022-09-13T11:30:44;44.07;39.08;58.88;;
11999;Laerm;40817;51.520;9.954;2022-09-13T11:33:36;43.15;39.08;57.40;;
11999;Laerm;40817;51.520;9.954;2022-09-13T11:36:41;46.64;39.92;61.28;;
11999;Laerm;40817;51.520;9.954;2022-09-13T11:39:25;45.21;40.33;61.23;;
11999;Laerm;40817;51.520;9.954;2022-09-13T11:42:09;44.54;40.53;66.97;;
11999;Laerm;40817;51.520;9.954;2022-09-13T11:45:15;45.98;40.80;67.57;;
11999;Laerm;40817;51.520;9.954;2022-09-13T11:48:30;46.68;40.98;64.79;;
11999;Laerm;40817;51.520;9.954;2022-09-13T11:51:10;44.98;42.71;65.62;;
11999;Laerm;40817;51.520;9.954;2022-09-13T11:53:59;45.90;42.71;54.60;;
11999;Laerm;40817;51.520;9.954;2022-09-13T11:56:35;46.77;41.68;57.83;;
11999;Laerm;40817;51.520;9.954;2022-09-13T11:59:17;44.22;40.89;50.86;;
11999;Laerm;40817;51.520;9.954;2022-09-13T12:01:53;45.02;43.09;57.06;;
11999;Laerm;40817;51.520;9.954;2022-09-13T12:04:29;45.06;42.53;61.10;;
11999;Laerm;40817;51.520;9.954;2022-09-13T12:07:03;44.98;40.53;55.51;;
11999;Laerm;40817;51.520;9.954;2022-09-13T12:09:45;44.41;39.92;68.29;;
11999;Laerm;40817;51.520;9.954;2022-09-13T12:12:14;43.68;39.70;59.53;;
11999;Laerm;40817;51.520;9.954;2022-09-13T12:14:49;45.51;41.06;60.29;;
11999;Laerm;40817;51.520;9.954;2022-09-13T12:17:28;44.37;41.06;56.87;;
11999;Laerm;40817;51.520;9.954;2022-09-13T12:20:01;43.69;40.03;65.45;;
11999;Laerm;40817;51.520;9.954;2022-09-13T12:22:33;44.42;38.52;62.60;;
11999;Laerm;40817;51.520;9.954;2022-09-13T12:25:14;47.10;40.03;70.03;;
11999;Laerm;40817;51.520;9.954;2022-09-13T12:27:54;45.67;40.62;62.63;;
11999;Laerm;40817;51.520;9.954;2022-09-13T12:30:27;43.67;40.62;57.39;;
11999;Laerm;40817;51.520;9.954;2022-09-13T12:32:57;43.87;40.13;59.23;;
11999;Laerm;40817;51.520;9.954;2022-09-13T12:35:31;44.68;40.89;55.68;;
11999;Laerm;40817;51.520;9.954;2022-09-13T12:38:24;43.92;40.53;56.86;;
11999;Laerm;40817;51.520;9.954;2022-09-13T12:41:22;44.65;41.22;57.00;;
11999;Laerm;40817;51.520;9.954;2022-09-13T12:44:45;45.10;41.75;58.15;;
11999;Laerm;40817;51.520;9.954;2022-09-13T12:47:47;44.05;40.23;54.29;;
11999;Laerm;40817;51.520;9.954;2022-09-13T12:50:44;43.70;39.21;55.61;;
11999;Laerm;40817;51.520;9.954;2022-09-13T12:54:05;43.36;40.23;53.49;;
11999;Laerm;40817;51.520;9.954;2022-09-13T12:56:56;43.28;38.67;57.17;;
11999;Laerm;40817;51.520;9.954;2022-09-13T13:00:29;43.31;40.13;50.88;;
11999;Laerm;40817;51.520;9.954;2022-09-13T13:03:05;42.97;39.21;59.08;;
11999;Laerm;40817;51.520;9.954;2022-09-13T13:05:47;44.81;40.03;63.60;;
11999;Laerm;40817;51.520;9.954;2022-09-13T13:08:27;44.98;41.82;60.17;;
11999;Laerm;40817;51.520;9.954;2022-09-13T13:11:05;44.40;39.81;52.33;;
11999;Laerm;40817;51.520;9.954;2022-09-13T13:13:37;43.93;40.53;53.97;;
11999;Laerm;40817;51.520;9.954;2022-09-13T13:16:26;43.76;40.98;56.50;;
11999;Laerm;40817;51.520;9.954;2022-09-13T13:18:56;43.90;40.13;53.70;;
11999;Laerm;40817;51.520;9.954;2022-09-13T13:21:36;43.83;40.13;50.06;;
11999;Laerm;40817;51.520;9.954;2022-09-13T13:24:44;43.85;40.33;53.82;;
11999;Laerm;40817;51.520;9.954;2022-09-13T13:27:48;44.18;39.81;54.35;;
11999;Laerm;40817;51.520;9.954;2022-09-13T13:30:53;44.61;40.03;68.64;;
11999;Laerm;40817;51.520;9.954;2022-09-13T13:33:27;43.74;39.08;51.42;;
11999;Laerm;40817;51.520;9.954;2022-09-13T13:35:57;54.24;41.75;72.15;;
11999;Laerm;40817;51.520;9.954;2022-09-13T13:38:50;44.21;41.06;51.39;;
11999;Laerm;40817;51.520;9.954;2022-09-13T13:41:51;43.75;39.70;53.40;;
11999;Laerm;40817;51.520;9.954;2022-09-13T13:45:22;43.84;40.03;51.97;;
11999;Laerm;40817;51.520;9.954;2022-09-13T13:48:09;43.81;41.14;52.63;;
11999;Laerm;40817;51.520;9.954;2022-09-13T13:51:20;46.06;40.27;65.99;;
11999;Laerm;40817;51.520;9.954;2022-09-13T13:53:59;44.16;40.80;54.57;;
11999;Laerm;40817;51.520;9.954;2022-09-13T13:56:48;44.14;40.98;55.52;;
11999;Laerm;40817;51.520;9.954;2022-09-13T13:59:24;43.86;40.53;54.92;;
11999;Laerm;40817;51.520;9.954;2022-09-13T14:01:56;43.60;40.80;56.59;;
11999;Laerm;40817;51.520;9.954;2022-09-13T14:08:03;43.36;39.35;61.15;;
11999;Laerm;40817;51.520;9.954;2022-09-13T14:10:46;43.79;39.92;51.50;;
11999;Laerm;40817;51.520;9.954;2022-09-13T14:13:43;44.26;40.33;59.28;;
11999;Laerm;40817;51.520;9.954;2022-09-13T14:16:32;43.38;40.03;58.29;;
11999;Laerm;40817;51.520;9.954;2022-09-13T14:19:22;44.03;39.81;62.23;;
11999;Laerm;40817;51.520;9.954;2022-09-13T14:22:15;45.34;41.14;61.03;;
11999;Laerm;40817;51.520;9.954;2022-09-13T14:24:46;44.32;41.30;58.48;;
11999;Laerm;40817;51.520;9.954;2022-09-13T14:27:20;43.25;39.92;48.03;;
11999;Laerm;40817;51.520;9.954;2022-09-13T14:29:52;43.61;39.34;53.13;;
11999;Laerm;40817;51.520;9.954;2022-09-13T14:32:24;43.60;40.62;51.87;;
11999;Laerm;40817;51.520;9.954;2022-09-13T14:34:57;44.66;39.92;57.20;;
11999;Laerm;40817;51.520;9.954;2022-09-13T14:37:32;42.99;40.03;48.00;;
11999;Laerm;40817;51.520;9.954;2022-09-13T14:40:13;42.86;37.70;51.04;;
11999;Laerm;40817;51.520;9.954;2022-09-13T14:42:47;42.72;39.08;45.93;;
11999;Laerm;40817;51.520;9.954;2022-09-13T14:45:18;43.04;39.70;49.30;;
11999;Laerm;40817;51.520;9.954;2022-09-13T14:47:53;43.38;39.21;48.31;;
11999;Laerm;40817;51.520;9.954;2022-09-13T14:50:27;43.62;39.58;61.87;;